Terminal Aerodrome Forecast
Issued by NWS

Home | Current Version | Previous Version | Text Only | Print | Product List | Glossary On
Versions: 1 2 3 4 5 6 7 8 9 10 11 12 13 14
000
FTUS44 KEPZ 042300
TAFDMN
TAF
KDMN 042320Z 0500/0524 22012KT P6SM VCSH SCT070 BKN250
     FM050300 27010KT P6SM FEW100 FEW250
     FM051500 26014G20KT P6SM FEW100 SCT250=

USA.gov is the U.S. government's official web portal to all federal, state and local government web resources and services.